createdAt,value
2022-07-28T00:00:09.469Z,9.30
2022-07-28T00:03:00.227Z,9.40
2022-07-28T00:05:50.126Z,9.23
2022-07-28T00:08:39.943Z,9.30
2022-07-28T00:11:29.283Z,8.83
2022-07-28T00:14:19.400Z,9.23
2022-07-28T00:17:08.951Z,9.10
2022-07-28T00:20:00.052Z,9.07
2022-07-28T00:22:49.480Z,9.00
2022-07-28T00:25:38.874Z,8.77
2022-07-28T00:28:28.219Z,8.87
2022-07-28T00:31:17.598Z,8.93
2022-07-28T00:34:07.099Z,8.90
2022-07-28T00:36:57.792Z,9.20
2022-07-28T00:39:47.113Z,8.93
2022-07-28T00:42:36.519Z,9.00
2022-07-28T00:45:25.999Z,9.10
2022-07-28T00:48:15.592Z,9.00
2022-07-28T00:51:05.115Z,9.13
2022-07-28T00:53:56.658Z,9.37
2022-07-28T00:56:46.110Z,8.97
2022-07-28T00:59:35.498Z,9.10
2022-07-28T01:02:25.099Z,8.80
2022-07-28T01:05:16.009Z,9.00
2022-07-28T01:08:12.127Z,8.90
2022-07-28T01:11:09.216Z,9.03
2022-07-28T01:14:08.777Z,8.70
2022-07-28T01:17:05.476Z,8.90
2022-07-28T01:20:06.228Z,8.83
2022-07-28T01:23:14.136Z,9.00
2022-07-28T01:26:23.295Z,8.83
2022-07-28T01:29:59.962Z,9.10
2022-07-28T01:32:59.266Z,9.17
2022-07-28T01:35:55.225Z,8.80
2022-07-28T01:38:47.085Z,8.93
2022-07-28T01:41:37.836Z,8.97
2022-07-28T01:44:28.618Z,9.03
2022-07-28T01:47:20.015Z,8.90
2022-07-28T01:50:13.847Z,8.70
2022-07-28T01:53:04.627Z,8.83
2022-07-28T01:55:54.898Z,9.03
2022-07-28T01:58:46.355Z,9.00
2022-07-28T02:01:37.628Z,8.70
2022-07-28T02:04:28.831Z,8.83
2022-07-28T02:07:21.883Z,9.10
2022-07-28T02:10:12.871Z,8.83
2022-07-28T02:13:03.715Z,8.87
2022-07-28T02:15:54.816Z,9.10
2022-07-28T02:18:46.591Z,9.30
2022-07-28T02:21:37.907Z,8.83
2022-07-28T02:24:31.708Z,9.00
2022-07-28T02:27:25.913Z,9.10
2022-07-28T02:30:19.630Z,9.10
2022-07-28T02:33:14.431Z,9.27
2022-07-28T02:36:10.772Z,8.90
2022-07-28T02:39:13.622Z,9.17
2022-07-28T02:42:10.147Z,9.00
2022-07-28T02:45:02.287Z,9.00
2022-07-28T02:47:55.577Z,8.97
2022-07-28T02:50:47.093Z,8.80
2022-07-28T02:53:37.916Z,9.10
2022-07-28T02:56:28.309Z,8.80
2022-07-28T02:59:21.043Z,9.20
2022-07-28T03:02:11.154Z,8.90
2022-07-28T03:05:02.914Z,9.37
2022-07-28T03:07:58.765Z,9.00
2022-07-28T03:10:48.179Z,9.10
2022-07-28T03:13:37.967Z,8.80
2022-07-28T03:16:28.746Z,9.23
2022-07-28T03:19:18.049Z,8.90
2022-07-28T03:22:10.255Z,8.80
2022-07-28T03:25:02.279Z,8.80
2022-07-28T03:27:53.839Z,8.90
2022-07-28T03:30:48.627Z,9.20
2022-07-28T03:33:40.494Z,9.00
2022-07-28T03:36:41.389Z,9.17
2022-07-28T03:39:37.329Z,9.40
2022-07-28T03:42:28.629Z,9.20
2022-07-28T03:45:18.934Z,8.90
2022-07-28T03:48:08.720Z,9.20
2022-07-28T03:50:59.955Z,9.03
2022-07-28T03:53:49.994Z,9.40
2022-07-28T03:56:39.400Z,9.00
2022-07-28T03:59:28.874Z,9.30
2022-07-28T04:02:18.287Z,9.20
2022-07-28T04:05:09.411Z,9.10
2022-07-28T04:08:00.142Z,9.50
2022-07-28T04:10:49.606Z,9.33
2022-07-28T04:13:38.954Z,9.03
2022-07-28T04:16:28.394Z,9.20
2022-07-28T04:19:17.718Z,9.03
2022-07-28T04:22:07.020Z,9.30
2022-07-28T04:24:57.652Z,8.90
2022-07-28T04:27:47.005Z,8.90
2022-07-28T04:30:39.515Z,9.10
2022-07-28T04:33:33.778Z,9.10
2022-07-28T04:36:23.053Z,9.00
2022-07-28T04:39:12.403Z,9.10
2022-07-28T04:42:03.100Z,9.07
2022-07-28T04:44:52.590Z,9.03
2022-07-28T04:47:42.087Z,9.03
2022-07-28T04:50:32.119Z,10.60
2022-07-28T04:53:22.083Z,10.43
2022-07-28T04:56:11.429Z,9.60
2022-07-28T04:59:03.939Z,9.00
2022-07-28T05:01:54.417Z,8.97
2022-07-28T05:04:44.360Z,9.00
2022-07-28T05:07:33.796Z,9.20
2022-07-28T05:10:23.086Z,8.80
2022-07-28T05:13:12.496Z,8.87
2022-07-28T05:16:03.693Z,8.87
2022-07-28T05:18:53.125Z,9.10
2022-07-28T05:21:42.698Z,8.80
2022-07-28T05:24:32.076Z,9.50
2022-07-28T05:27:21.427Z,9.27
2022-07-28T05:30:12.410Z,26.83
2022-07-28T05:33:03.074Z,16.07
2022-07-28T05:35:57.507Z,12.60
2022-07-28T05:38:46.787Z,11.33
2022-07-28T05:41:36.114Z,9.60
2022-07-28T05:44:25.465Z,9.40
2022-07-28T05:47:14.841Z,9.30
2022-07-28T05:50:06.452Z,9.00
2022-07-28T05:52:55.783Z,8.90
2022-07-28T05:56:00.813Z,8.90
2022-07-28T05:58:50.970Z,8.60
2022-07-28T06:01:40.376Z,9.10
2022-07-28T06:04:29.889Z,8.80
2022-07-28T06:07:20.845Z,8.73
2022-07-28T06:10:11.266Z,9.17
2022-07-28T06:13:02.787Z,9.00
2022-07-28T06:15:52.863Z,9.03
2022-07-28T06:18:43.978Z,9.40
2022-07-28T06:21:33.332Z,9.43
2022-07-28T06:24:24.167Z,9.47
2022-07-28T06:27:13.600Z,9.50
2022-07-28T06:30:02.935Z,9.57
2022-07-28T06:32:53.049Z,9.50
2022-07-28T06:35:43.198Z,9.20
2022-07-28T06:38:39.347Z,9.00
2022-07-28T06:41:30.170Z,9.23
2022-07-28T06:44:20.064Z,9.43
2022-07-28T06:47:09.809Z,9.23
2022-07-28T06:49:59.219Z,9.00
2022-07-28T06:52:48.740Z,9.00
2022-07-28T06:55:38.615Z,9.33
2022-07-28T06:58:32.051Z,8.97
2022-07-28T07:01:22.174Z,9.17
2022-07-28T07:04:12.107Z,8.90
2022-07-28T07:07:01.772Z,8.97
2022-07-28T07:09:52.597Z,8.93
2022-07-28T07:12:41.934Z,8.90
2022-07-28T07:15:32.712Z,8.47
2022-07-28T07:18:24.401Z,8.70
2022-07-28T07:21:13.701Z,8.20
2022-07-28T07:24:03.071Z,8.50
2022-07-28T07:26:52.474Z,8.07
2022-07-28T07:29:41.824Z,8.60
2022-07-28T07:32:32.566Z,8.33
2022-07-28T07:35:21.996Z,8.53
2022-07-28T07:38:11.355Z,8.43
2022-07-28T07:41:01.099Z,8.57
2022-07-28T07:43:50.787Z,8.97
2022-07-28T07:46:40.267Z,9.17
2022-07-28T07:49:42.314Z,9.50
2022-07-28T07:52:35.499Z,8.90
2022-07-28T07:55:25.084Z,8.90
2022-07-28T07:58:14.656Z,9.00
2022-07-28T08:01:03.986Z,9.40
2022-07-28T08:03:53.740Z,9.53
2022-07-28T08:06:44.664Z,9.83
2022-07-28T08:09:34.665Z,9.40
2022-07-28T08:12:24.682Z,9.25
2022-07-28T08:15:15.418Z,9.10
2022-07-28T08:18:05.555Z,8.60
2022-07-28T08:20:54.941Z,8.70
2022-07-28T08:23:45.668Z,8.10
2022-07-28T08:26:35.021Z,8.30
2022-07-28T08:29:24.453Z,8.70
2022-07-28T08:32:13.981Z,8.80
2022-07-28T08:35:30.461Z,8.75
2022-07-28T08:38:12.937Z,8.45
2022-07-28T08:41:06.013Z,8.80
2022-07-28T08:43:56.822Z,8.50
2022-07-28T08:46:50.107Z,8.75
2022-07-28T08:49:42.837Z,8.65
2022-07-28T08:52:34.235Z,8.40
2022-07-28T08:55:31.663Z,8.43
2022-07-28T08:58:24.802Z,8.52
2022-07-28T09:01:14.275Z,8.77
2022-07-28T09:04:04.087Z,8.52
2022-07-28T09:06:53.656Z,8.60
2022-07-28T09:09:43.010Z,8.43
2022-07-28T09:12:35.105Z,8.30
2022-07-28T09:15:25.938Z,8.30
2022-07-28T09:18:16.915Z,8.60
2022-07-28T09:21:06.368Z,8.70
2022-07-28T09:23:55.694Z,8.70
2022-07-28T09:27:02.043Z,8.75
2022-07-28T09:30:01.632Z,8.93
2022-07-28T09:32:52.407Z,8.85
2022-07-28T09:35:49.601Z,8.82
2022-07-28T09:38:42.713Z,9.00
2022-07-28T09:41:48.601Z,8.90
2022-07-28T09:44:38.021Z,9.38
2022-07-28T09:47:33.132Z,8.63
2022-07-28T09:50:27.735Z,8.70
2022-07-28T09:53:28.219Z,8.95
2022-07-28T09:56:18.613Z,8.50
2022-07-28T09:59:09.334Z,9.20
2022-07-28T10:02:02.932Z,8.80
2022-07-28T10:04:53.968Z,9.35
2022-07-28T10:07:51.607Z,9.13
2022-07-28T10:10:41.081Z,9.30
2022-07-28T10:13:30.539Z,8.88
2022-07-28T10:16:20.933Z,9.07
2022-07-28T10:19:10.831Z,9.20
2022-07-28T10:22:01.414Z,9.52
2022-07-28T10:24:54.719Z,9.00
2022-07-28T10:27:47.010Z,10.52
2022-07-28T10:30:41.190Z,9.23
2022-07-28T10:33:33.362Z,9.40
2022-07-28T10:36:25.934Z,9.68
2022-07-28T10:39:20.708Z,9.10
2022-07-28T10:42:13.624Z,9.50
2022-07-28T10:45:05.083Z,9.50
2022-07-28T10:47:56.116Z,9.30
2022-07-28T10:50:46.135Z,9.73
2022-07-28T10:53:48.783Z,9.15
2022-07-28T10:56:50.787Z,9.38
2022-07-28T11:00:15.651Z,9.80
2022-07-28T11:03:13.877Z,9.93
2022-07-28T11:06:27.236Z,9.70
2022-07-28T11:09:25.765Z,9.57
2022-07-28T11:12:16.296Z,9.52
2022-07-28T11:15:32.093Z,9.75
2022-07-28T11:18:21.872Z,10.48
2022-07-28T11:21:11.606Z,10.60
2022-07-28T11:24:06.863Z,11.33
2022-07-28T11:27:01.040Z,10.83
2022-07-28T11:29:53.212Z,11.57
2022-07-28T11:32:59.214Z,11.60
2022-07-28T11:35:57.868Z,12.00
2022-07-28T11:39:24.635Z,11.87
2022-07-28T11:42:30.923Z,11.73
2022-07-28T11:45:35.863Z,12.80
2022-07-28T11:48:31.034Z,12.00
2022-07-28T11:51:20.562Z,12.40
2022-07-28T11:54:18.062Z,14.67
2022-07-28T11:57:09.891Z,14.17
2022-07-28T12:00:02.982Z,14.20
2022-07-28T12:03:12.381Z,13.57
2022-07-28T12:06:03.224Z,13.50
2022-07-28T12:08:52.784Z,13.50
2022-07-28T12:11:43.625Z,13.70
2022-07-28T12:14:40.766Z,14.03
2022-07-28T12:17:36.242Z,14.70
2022-07-28T12:20:31.638Z,15.23
2022-07-28T12:23:34.990Z,15.10
2022-07-28T12:26:40.612Z,14.30
2022-07-28T12:29:36.108Z,14.20
2022-07-28T12:32:33.450Z,14.70
2022-07-28T12:35:25.273Z,14.30
2022-07-28T12:38:15.130Z,14.50
2022-07-28T12:41:16.203Z,14.80
2022-07-28T12:44:06.833Z,13.90
2022-07-28T12:46:56.456Z,13.50
2022-07-28T12:49:46.503Z,13.60
2022-07-28T12:52:36.572Z,13.33
2022-07-28T12:55:29.459Z,13.27
2022-07-28T12:58:29.887Z,12.80
2022-07-28T13:01:19.391Z,13.50
2022-07-28T13:04:08.838Z,13.20
2022-07-28T13:06:58.427Z,13.10
2022-07-28T13:09:59.967Z,13.60
2022-07-28T13:13:03.033Z,14.27
2022-07-28T13:16:17.293Z,13.70
2022-07-28T13:19:08.900Z,14.17
2022-07-28T13:22:04.069Z,15.33
2022-07-28T13:24:58.025Z,15.70
2022-07-28T13:27:52.472Z,17.10
2022-07-28T13:30:44.694Z,18.30
2022-07-28T13:33:35.417Z,17.07
2022-07-28T13:36:24.909Z,16.00
2022-07-28T13:39:14.884Z,16.20
2022-07-28T13:42:05.400Z,16.20
2022-07-28T13:44:55.322Z,15.57
2022-07-28T13:47:46.510Z,14.30
2022-07-28T13:50:42.931Z,15.33
2022-07-28T13:53:35.605Z,16.20
2022-07-28T13:56:42.599Z,13.33
2022-07-28T13:59:32.152Z,12.87
2022-07-28T14:02:26.005Z,12.90
2022-07-28T14:05:16.118Z,13.53
2022-07-28T14:08:07.264Z,14.47
2022-07-28T14:10:59.203Z,16.00
2022-07-28T14:13:52.122Z,16.40
2022-07-28T14:16:42.658Z,14.80
2022-07-28T14:19:39.188Z,15.53
2022-07-28T14:22:29.373Z,14.47
2022-07-28T14:25:21.472Z,14.10
2022-07-28T14:28:11.462Z,14.77
2022-07-28T14:31:00.937Z,13.30
2022-07-28T14:33:54.443Z,13.60
2022-07-28T14:36:45.219Z,13.20
2022-07-28T14:39:34.671Z,13.27
2022-07-28T14:42:26.345Z,13.50
2022-07-28T14:45:15.758Z,13.53
2022-07-28T14:48:06.413Z,13.60
2022-07-28T14:51:00.698Z,12.90
2022-07-28T14:53:52.379Z,13.60
2022-07-28T14:56:42.051Z,13.93
2022-07-28T14:59:33.477Z,14.60
2022-07-28T15:02:29.415Z,13.67
2022-07-28T15:05:35.002Z,12.80
2022-07-28T15:08:29.646Z,13.07
2022-07-28T15:11:33.860Z,12.80
2022-07-28T15:14:24.224Z,12.90
2022-07-28T15:17:41.648Z,13.03
2022-07-28T15:20:39.513Z,12.63
2022-07-28T15:23:29.362Z,13.43
2022-07-28T15:26:19.377Z,12.60
2022-07-28T15:29:12.624Z,12.90
2022-07-28T15:32:04.612Z,11.50
2022-07-28T15:34:57.387Z,12.07
2022-07-28T15:43:32.920Z,11.40
2022-07-28T15:46:22.929Z,11.10
2022-07-28T15:55:03.876Z,10.47
2022-07-28T15:57:57.602Z,10.20
2022-07-28T16:00:56.283Z,10.77
2022-07-28T16:03:54.109Z,10.70
2022-07-28T16:07:02.061Z,11.20
2022-07-28T16:09:58.273Z,10.70
2022-07-28T16:12:58.408Z,11.60
2022-07-28T16:15:55.095Z,11.70
2022-07-28T16:18:58.833Z,12.00
2022-07-28T16:21:49.911Z,11.23
2022-07-28T16:24:40.113Z,11.27
2022-07-28T16:27:35.458Z,10.60
2022-07-28T16:30:31.092Z,11.00
2022-07-28T16:33:23.342Z,10.60
2022-07-28T16:36:15.226Z,10.90
2022-07-28T16:39:09.308Z,11.23
2022-07-28T16:41:59.994Z,11.80
2022-07-28T16:44:51.506Z,12.03
2022-07-28T16:47:41.220Z,11.77
2022-07-28T16:50:33.757Z,11.70
2022-07-28T16:53:25.520Z,11.43
2022-07-28T16:56:25.240Z,11.60
2022-07-28T17:03:07.431Z,10.80
2022-07-28T17:06:39.270Z,10.83
2022-07-28T17:09:50.859Z,10.50
2022-07-28T17:12:55.716Z,10.30
2022-07-28T17:16:19.481Z,10.20
2022-07-28T17:19:14.852Z,10.00
2022-07-28T17:22:07.546Z,9.90
2022-07-28T17:24:59.376Z,10.00
2022-07-28T17:27:54.193Z,10.23
2022-07-28T17:30:44.200Z,10.67
2022-07-28T17:33:36.074Z,10.00
2022-07-28T17:36:29.594Z,10.13
2022-07-28T17:39:27.323Z,9.93
2022-07-28T17:42:17.056Z,9.80
2022-07-28T17:45:10.642Z,9.80
2022-07-28T17:48:04.776Z,9.30
2022-07-28T17:51:18.266Z,9.90
2022-07-28T17:54:16.047Z,9.37
2022-07-28T17:57:10.725Z,9.10
2022-07-28T18:00:08.163Z,9.50
2022-07-28T18:03:21.442Z,8.97
2022-07-28T18:06:11.745Z,9.10
2022-07-28T18:09:06.804Z,9.10
2022-07-28T18:12:00.725Z,9.10
2022-07-28T18:14:52.517Z,9.10
2022-07-28T18:17:55.001Z,9.17
2022-07-28T18:20:46.020Z,8.67
2022-07-28T18:23:38.503Z,9.07
2022-07-28T18:26:27.979Z,9.47
2022-07-28T18:29:17.831Z,8.70
2022-07-28T18:32:12.651Z,8.87
2022-07-28T18:35:02.113Z,8.80
2022-07-28T18:37:52.553Z,8.90
2022-07-28T18:40:42.951Z,9.10
2022-07-28T18:43:32.449Z,8.80
2022-07-28T18:46:22.963Z,8.60
2022-07-28T18:49:18.289Z,8.90
2022-07-28T18:52:08.153Z,8.70
2022-07-28T18:54:57.777Z,9.20
2022-07-28T18:57:48.182Z,8.90
2022-07-28T19:00:38.192Z,8.67
2022-07-28T19:03:28.237Z,8.60
2022-07-28T19:06:20.593Z,8.60
2022-07-28T19:09:10.140Z,8.60
2022-07-28T19:12:00.811Z,9.03
2022-07-28T19:15:10.576Z,8.83
2022-07-28T19:18:12.172Z,8.57
2022-07-28T19:21:08.226Z,8.80
2022-07-28T19:24:04.952Z,9.23
2022-07-28T19:26:54.624Z,10.00
2022-07-28T19:29:44.254Z,10.00
2022-07-28T19:32:33.931Z,9.50
2022-07-28T19:35:23.483Z,9.20
2022-07-28T19:38:13.363Z,9.40
2022-07-28T19:41:04.359Z,9.03
2022-07-28T19:43:54.387Z,9.10
2022-07-28T19:46:45.359Z,9.30
2022-07-28T19:49:34.963Z,8.90
2022-07-28T19:52:24.466Z,9.00
2022-07-28T19:55:15.992Z,9.03
2022-07-28T19:58:08.750Z,9.20
2022-07-28T20:00:58.324Z,9.40
2022-07-28T20:04:01.128Z,8.80
2022-07-28T20:06:55.767Z,8.90
2022-07-28T20:09:45.415Z,9.40
2022-07-28T20:12:36.818Z,9.03
2022-07-28T20:15:28.298Z,9.20
2022-07-28T20:18:19.300Z,9.03
2022-07-28T20:21:09.078Z,9.20
2022-07-28T20:23:58.978Z,9.10
2022-07-28T20:26:48.495Z,9.60
2022-07-28T20:29:38.041Z,9.67
2022-07-28T20:32:28.936Z,9.47
2022-07-28T20:35:18.384Z,9.17
2022-07-28T20:38:08.428Z,8.90
2022-07-28T20:40:57.994Z,9.10
2022-07-28T20:44:05.090Z,9.23
2022-07-28T20:46:58.641Z,8.97
2022-07-28T20:49:49.692Z,8.80
2022-07-28T20:52:39.104Z,9.30
2022-07-28T20:55:28.929Z,9.23
2022-07-28T20:58:18.324Z,9.10
2022-07-28T21:01:07.944Z,9.63
2022-07-28T21:03:57.407Z,10.27
2022-07-28T21:06:50.985Z,9.90
2022-07-28T21:09:41.655Z,9.80
2022-07-28T21:12:32.064Z,9.60
2022-07-28T21:15:22.647Z,10.00
2022-07-28T21:18:12.122Z,9.90
2022-07-28T21:21:01.582Z,9.30
2022-07-28T21:23:52.488Z,9.30
2022-07-28T21:26:42.852Z,9.50
2022-07-28T21:29:31.331Z,9.50
2022-07-28T21:32:20.934Z,9.30
2022-07-28T21:35:14.187Z,10.03
2022-07-28T21:38:04.043Z,9.50
2022-07-28T21:40:55.130Z,9.50
2022-07-28T21:43:44.571Z,9.37
2022-07-28T21:46:34.066Z,9.70
2022-07-28T21:49:23.528Z,9.47
2022-07-28T21:52:12.940Z,9.60
2022-07-28T21:55:03.925Z,9.70
2022-07-28T21:57:54.848Z,9.80
2022-07-28T22:00:45.046Z,9.60
2022-07-28T22:03:34.525Z,9.50
2022-07-28T22:06:24.070Z,10.17
2022-07-28T22:09:13.497Z,10.33
2022-07-28T22:12:02.948Z,10.40
2022-07-28T22:14:53.727Z,10.90
2022-07-28T22:17:43.362Z,10.73
2022-07-28T22:20:32.820Z,10.70
2022-07-28T22:23:29.526Z,10.20
2022-07-28T22:26:19.522Z,10.20
2022-07-28T22:29:08.918Z,10.10
2022-07-28T22:31:59.823Z,10.20
2022-07-28T22:34:49.438Z,10.00
2022-07-28T22:37:38.962Z,9.70
2022-07-28T22:40:28.438Z,10.17
2022-07-28T22:43:17.918Z,10.27
2022-07-28T22:46:07.484Z,9.97
2022-07-28T22:48:58.418Z,9.67
2022-07-28T22:51:48.378Z,9.90
2022-07-28T22:54:39.495Z,10.30
2022-07-28T22:57:28.957Z,9.47
2022-07-28T23:00:19.170Z,9.80
2022-07-28T23:03:12.864Z,10.03
2022-07-28T23:06:04.913Z,9.90
2022-07-28T23:08:54.430Z,9.90
2022-07-28T23:11:55.596Z,9.70
2022-07-28T23:14:45.613Z,9.87
2022-07-28T23:17:35.129Z,9.80
2022-07-28T23:20:24.557Z,9.87
2022-07-28T23:23:18.590Z,9.40
2022-07-28T23:26:08.126Z,9.87
2022-07-28T23:28:57.601Z,9.93
2022-07-28T23:31:47.057Z,10.07
2022-07-28T23:34:36.649Z,10.47
2022-07-28T23:37:26.179Z,9.63
2022-07-28T23:40:17.351Z,10.30
2022-07-28T23:43:07.000Z,10.30
2022-07-28T23:45:56.386Z,9.87
2022-07-28T23:48:45.975Z,10.23
2022-07-28T23:51:48.234Z,10.27
2022-07-28T23:54:39.456Z,10.90
2022-07-28T23:57:31.012Z,10.50
